Time;durP1;ratioP1;P1;durP2;ratioP2;P2;SDS_P1;SDS_P2;PMS_P1;PMS_P2;Temp;Humidity;BMP_temperature;BMP_pressure;BME280_temperature;BME280_humidity;BME280_pressure;Samples;Min_cycle;Max_cycle;Signal;HPM_P1;HPM_P2
2022/07/17 00:01:09;;;;;;;0.60;0.30;;;;;;;22.75;92.53;95575.50;5132949;27;20456;-57
2022/07/17 00:03:37;;;;;;;0.50;0.50;;;;;;;22.84;89.72;95571.91;5133095;27;20427;-57
2022/07/17 00:06:06;;;;;;;0.50;0.30;;;;;;;22.82;91.05;95580.34;5133424;27;20849;-57
2022/07/17 00:08:36;;;;;;;0.50;0.37;;;;;;;22.72;92.58;95572.69;5133475;27;20987;-57
2022/07/17 00:11:04;;;;;;;0.40;0.30;;;;;;;22.77;93.21;95584.06;5133338;27;20438;-57
2022/07/17 00:13:32;;;;;;;0.50;0.30;;;;;;;22.75;95.17;95582.81;5133330;27;20441;-57
2022/07/17 00:16:01;;;;;;;0.40;0.20;;;;;;;22.78;94.69;95584.84;5133088;27;20491;-57
2022/07/17 00:18:29;;;;;;;0.40;0.20;;;;;;;22.66;94.31;95569.44;5133057;27;20538;-56
2022/07/17 00:20:58;;;;;;;0.40;0.30;;;;;;;22.72;94.54;95580.78;5133292;27;20554;-56
2022/07/17 00:23:26;;;;;;;0.40;0.30;;;;;;;22.67;93.77;95579.13;5132512;27;20477;-56
2022/07/17 00:25:56;;;;;;;0.50;0.37;;;;;;;22.64;93.54;95573.63;5132969;27;20561;-56
2022/07/17 00:28:25;;;;;;;0.50;0.30;;;;;;;22.63;94.05;95572.81;5133206;27;20442;-56
2022/07/17 00:30:53;;;;;;;0.40;0.30;;;;;;;22.60;93.69;95570.78;5133043;27;20434;-56
2022/07/17 00:33:22;;;;;;;0.40;0.30;;;;;;;22.60;94.58;95573.47;5132921;27;20522;-56
2022/07/17 00:35:50;;;;;;;0.40;0.30;;;;;;;22.62;94.28;95576.63;5132961;27;20418;-56
2022/07/17 00:38:19;;;;;;;2.10;0.60;;;;;;;22.54;95.06;95563.25;5132474;27;20431;-56
2022/07/17 00:40:47;;;;;;;0.43;0.27;;;;;;;22.51;95.73;95567.41;5133186;27;20507;-56
2022/07/17 00:43:17;;;;;;;0.40;0.20;;;;;;;22.28;97.48;95566.28;5131616;27;20423;-56
2022/07/17 00:45:46;;;;;;;0.40;0.20;;;;;;;22.43;97.09;95571.00;5132262;27;21109;-56
2022/07/17 00:48:15;;;;;;;0.40;0.20;;;;;;;22.36;98.66;95578.88;5132624;27;20921;-56
2022/07/17 00:50:43;;;;;;;0.40;0.30;;;;;;;22.06;100.00;95574.81;5133103;27;20535;-57
2022/07/17 00:53:12;;;;;;;0.50;0.33;;;;;;;22.04;100.00;95574.34;5132964;27;20434;-56
2022/07/17 00:55:41;;;;;;;0.47;0.40;;;;;;;22.12;99.29;95557.25;5131363;27;20518;-56
2022/07/17 00:58:13;;;;;;;0.70;0.43;;;;;;;22.30;99.73;95576.72;5132631;27;20476;-56
2022/07/17 01:00:43;;;;;;;0.50;0.40;;;;;;;22.28;100.00;95579.78;5132811;27;20513;-57
2022/07/17 01:03:12;;;;;;;0.40;0.20;;;;;;;22.32;99.79;95579.88;5132659;27;20471;-56
2022/07/17 01:05:40;;;;;;;0.40;0.30;;;;;;;22.34;98.60;95580.34;5132800;27;20436;-57
2022/07/17 01:08:09;;;;;;;0.40;0.30;;;;;;;22.34;99.78;95578.41;5132233;27;21022;-56
2022/07/17 01:10:38;;;;;;;0.57;0.53;;;;;;;21.71;100.00;95587.03;5131333;27;20434;-57
2022/07/17 01:13:07;;;;;;;0.53;0.37;;;;;;;21.95;100.00;95581.75;5132763;27;20442;-56
2022/07/17 01:15:40;;;;;;;0.50;0.30;;;;;;;21.88;100.00;95579.59;5131510;28;20489;-57
2022/07/17 01:18:12;;;;;;;0.80;0.57;;;;;;;21.90;100.00;95576.56;5132348;28;20533;-56
2022/07/17 01:20:42;;;;;;;0.50;0.40;;;;;;;21.62;100.00;95584.44;5132639;28;20430;-56
2022/07/17 01:23:13;;;;;;;0.50;0.43;;;;;;;21.86;100.00;95576.44;5132724;28;20514;-57
2022/07/17 01:25:43;;;;;;;0.50;0.30;;;;;;;21.97;100.00;95580.28;5132302;28;20441;-57
2022/07/17 01:28:12;;;;;;;0.40;0.30;;;;;;;22.01;100.00;95577.72;5132291;28;20425;-56
2022/07/17 01:30:47;;;;;;;0.50;0.30;;;;;;;22.04;100.00;95579.72;5132298;28;20518;-56
2022/07/17 01:33:15;;;;;;;0.50;0.30;;;;;;;21.82;100.00;95580.13;5132236;28;20445;-57
2022/07/17 01:35:45;;;;;;;0.50;0.40;;;;;;;21.95;100.00;95579.06;5134712;27;20462;-57
2022/07/17 01:38:15;;;;;;;0.50;0.50;;;;;;;22.11;100.00;95582.69;5135439;27;20468;-57
2022/07/17 01:40:43;;;;;;;0.40;0.20;;;;;;;21.95;100.00;95579.06;5136365;27;20418;-57
2022/07/17 01:43:12;;;;;;;0.50;0.30;;;;;;;22.02;100.00;95577.38;5136223;27;20434;-57
2022/07/17 01:45:40;;;;;;;0.40;0.30;;;;;;;22.06;100.00;95572.88;5134089;27;20472;-57
2022/07/17 01:48:09;;;;;;;0.50;0.30;;;;;;;22.10;100.00;95567.59;5135531;27;20480;-57
2022/07/17 01:50:37;;;;;;;0.40;0.30;;;;;;;21.95;100.00;95560.16;5135206;27;20985;-57
2022/07/17 01:53:06;;;;;;;0.50;0.30;;;;;;;22.00;100.00;95568.84;5134758;27;20434;-57
2022/07/17 01:55:36;;;;;;;0.57;0.50;;;;;;;21.90;100.00;95573.88;5135970;27;20447;-57
2022/07/17 01:58:05;;;;;;;0.43;0.33;;;;;;;21.03;100.00;95580.31;5136044;27;20575;-57
2022/07/17 02:00:34;;;;;;;0.50;0.30;;;;;;;21.28;100.00;95582.03;5135881;27;20467;-57
2022/07/17 02:03:03;;;;;;;0.40;0.30;;;;;;;21.51;100.00;95589.47;5135911;27;20426;-57
2022/07/17 02:05:32;;;;;;;0.60;0.37;;;;;;;21.61;100.00;95580.16;5135900;27;20458;-57
2022/07/17 02:08:00;;;;;;;0.50;0.30;;;;;;;21.62;100.00;95597.13;5134824;27;21004;-57
2022/07/17 02:10:28;;;;;;;0.40;0.30;;;;;;;21.22;100.00;95573.41;5135731;27;20414;-57
2022/07/17 02:12:58;;;;;;;0.40;0.30;;;;;;;21.19;100.00;95597.50;5135676;27;20430;-57
2022/07/17 02:15:27;;;;;;;0.57;0.50;;;;;;;21.24;100.00;95573.84;5135548;27;20537;-58
2022/07/17 02:17:56;;;;;;;0.50;0.40;;;;;;;21.45;100.00;95606.97;5135663;27;20453;-58
2022/07/17 02:20:25;;;;;;;0.40;0.30;;;;;;;21.42;100.00;95596.06;5134481;27;20434;-58
2022/07/17 02:22:53;;;;;;;0.50;0.30;;;;;;;21.53;100.00;95606.09;5134165;27;20418;-58
2022/07/17 02:25:23;;;;;;;0.50;0.40;;;;;;;21.63;100.00;95602.19;5134922;27;20495;-57
2022/07/17 02:27:52;;;;;;;0.50;0.40;;;;;;;21.60;100.00;95599.38;5134891;27;20794;-58
2022/07/17 02:30:22;;;;;;;0.40;0.20;;;;;;;21.67;100.00;95597.72;5135263;27;20423;-58
2022/07/17 02:32:50;;;;;;;0.60;0.47;;;;;;;21.55;100.00;95595.00;5135442;27;20427;-58
2022/07/17 02:35:19;;;;;;;0.67;0.40;;;;;;;21.16;100.00;95561.22;5134984;27;20530;-58
2022/07/17 02:37:47;;;;;;;0.40;0.30;;;;;;;21.68;100.00;95601.22;5134332;27;20465;-58
2022/07/17 02:40:15;;;;;;;0.40;0.20;;;;;;;21.59;100.00;95592.41;5135000;27;20518;-58
2022/07/17 02:42:44;;;;;;;0.50;0.40;;;;;;;21.73;100.00;95604.47;5135483;27;20419;-58
2022/07/17 02:45:12;;;;;;;0.40;0.30;;;;;;;21.78;100.00;95598.09;5135137;27;20439;-57
2022/07/17 02:47:42;;;;;;;0.40;0.30;;;;;;;21.80;100.00;95596.66;5134370;27;20474;-57
2022/07/17 02:50:12;;;;;;;0.40;0.30;;;;;;;21.83;100.00;95587.88;5134196;27;20522;-58
2022/07/17 02:52:40;;;;;;;0.40;0.30;;;;;;;21.84;100.00;95600.25;5133249;27;20430;-58
2022/07/17 02:55:09;;;;;;;0.57;0.30;;;;;;;21.41;100.00;95599.84;5133727;27;20462;-57
2022/07/17 02:57:38;;;;;;;0.50;0.40;;;;;;;20.92;100.00;95607.66;5134099;27;20431;-57
2022/07/17 03:00:10;;;;;;;0.63;0.60;;;;;;;20.70;100.00;95607.16;5134008;27;20514;-58
2022/07/17 03:02:39;;;;;;;0.43;0.30;;;;;;;20.53;100.00;95612.66;5134736;27;20985;-57
2022/07/17 03:05:09;;;;;;;0.70;0.60;;;;;;;20.82;100.00;95605.34;5134790;27;20415;-58
2022/07/17 03:07:38;;;;;;;0.60;0.50;;;;;;;20.32;100.00;95606.41;5134656;27;21051;-57
2022/07/17 03:10:08;;;;;;;0.60;0.40;;;;;;;20.27;100.00;95612.75;5134607;27;20442;-57
2022/07/17 03:12:36;;;;;;;0.63;0.57;;;;;;;20.43;100.00;95615.69;5134635;27;20904;-57
2022/07/17 03:15:06;;;;;;;1.03;0.50;;;;;;;20.05;100.00;95615.66;5134209;27;20824;-57
2022/07/17 03:17:34;;;;;;;1.13;0.80;;;;;;;19.75;100.00;95619.38;5134260;27;20458;-57
2022/07/17 03:20:04;;;;;;;0.43;0.30;;;;;;;19.91;100.00;95623.16;5133708;27;20434;-57
2022/07/17 03:22:34;;;;;;;0.70;0.70;;;;;;;20.13;100.00;95618.34;5133500;27;20514;-57
2022/07/17 03:25:03;;;;;;;0.50;0.30;;;;;;;20.60;100.00;95626.38;5134590;27;20521;-57
2022/07/17 03:27:32;;;;;;;0.67;0.67;;;;;;;20.87;100.00;95623.25;5134745;27;20904;-57
2022/07/17 03:30:00;;;;;;;0.50;0.40;;;;;;;20.84;100.00;95626.59;5134477;27;20489;-57
2022/07/17 03:32:29;;;;;;;0.57;0.57;;;;;;;19.87;100.00;95468.88;5133007;27;21122;-57
2022/07/17 03:34:57;;;;;;;0.50;0.40;;;;;;;20.88;100.00;95628.28;5133722;27;20554;-57
2022/07/17 03:37:27;;;;;;;0.73;0.73;;;;;;;20.77;100.00;95629.00;5132614;27;20516;-57
2022/07/17 03:39:57;;;;;;;0.50;0.40;;;;;;;20.80;100.00;95636.41;5134111;27;20792;-57
2022/07/17 03:42:25;;;;;;;1.27;1.27;;;;;;;20.70;100.00;95575.63;5134118;27;20504;-58
2022/07/17 03:44:53;;;;;;;0.60;0.50;;;;;;;21.11;100.00;95626.13;5133990;27;20422;-57
2022/07/17 03:47:22;;;;;;;0.50;0.33;;;;;;;20.96;100.00;95570.06;5133486;27;21038;-57
2022/07/17 03:49:50;;;;;;;0.50;0.40;;;;;;;21.29;100.00;95624.06;5133026;27;20450;-57
2022/07/17 03:52:19;;;;;;;0.50;0.40;;;;;;;21.34;100.00;95627.38;5133097;27;20808;-57
2022/07/17 03:54:47;;;;;;;0.77;0.77;;;;;;;21.48;100.00;95624.38;5133670;27;20521;-56
2022/07/17 03:57:17;;;;;;;0.50;0.40;;;;;;;21.53;100.00;95632.28;5133864;27;20510;-57
2022/07/17 03:59:45;;;;;;;0.50;0.30;;;;;;;21.51;100.00;95629.91;5132628;27;20506;-57
2022/07/17 04:02:15;;;;;;;0.60;0.30;;;;;;;21.64;100.00;95633.47;5133879;27;20481;-57
2022/07/17 04:04:43;;;;;;;0.40;0.20;;;;;;;21.71;100.00;95632.91;5133576;27;20557;-57
2022/07/17 04:07:26;;;;;;;0.77;0.33;;;;;;;21.54;100.00;95636.56;5133587;27;20526;-57
2022/07/17 04:09:57;;;;;;;0.47;0.33;;;;;;;21.49;100.00;95637.56;5133019;27;20407;-57
2022/07/17 04:12:28;;;;;;;0.50;0.50;;;;;;;21.21;100.00;95592.56;5133242;27;20920;-57
2022/07/17 04:14:56;;;;;;;0.60;0.40;;;;;;;21.34;100.00;95630.06;5133131;27;20419;-57
2022/07/17 04:17:25;;;;;;;0.60;0.50;;;;;;;21.53;100.00;95651.16;5133176;27;20931;-57
2022/07/17 04:19:54;;;;;;;0.80;0.40;;;;;;;21.68;100.00;95628.19;5133584;27;20529;-58
2022/07/17 04:22:22;;;;;;;0.40;0.30;;;;;;;21.67;100.00;95643.59;5133117;27;20427;-57
2022/07/17 04:24:51;;;;;;;0.60;0.57;;;;;;;21.52;100.00;95625.31;5133352;27;20850;-58
2022/07/17 04:27:19;;;;;;;2.83;0.57;;;;;;;21.78;100.00;95652.84;5133291;27;20479;-58
2022/07/17 04:29:49;;;;;;;0.50;0.50;;;;;;;21.73;100.00;95650.34;5132966;27;20475;-58
2022/07/17 04:32:18;;;;;;;0.50;0.30;;;;;;;21.97;100.00;95641.56;5132791;27;20465;-58
2022/07/17 04:34:46;;;;;;;0.60;0.40;;;;;;;22.01;100.00;95640.56;5132969;27;20458;-57
2022/07/17 04:37:15;;;;;;;1.03;0.70;;;;;;;21.96;100.00;95659.69;5132570;27;20430;-58
2022/07/17 04:39:43;;;;;;;0.40;0.40;;;;;;;21.69;100.00;95648.66;5133218;27;20829;-58
2022/07/17 04:42:11;;;;;;;0.43;0.40;;;;;;;21.96;100.00;95656.22;5132744;27;20521;-57
2022/07/17 04:44:40;;;;;;;1.23;1.23;;;;;;;22.24;100.00;95651.75;5132668;27;21015;-57
2022/07/17 04:47:10;;;;;;;0.40;0.30;;;;;;;22.23;100.00;95649.41;5132662;27;20525;-57
2022/07/17 04:49:38;;;;;;;0.60;0.47;;;;;;;21.92;100.00;95656.09;5133035;27;20505;-57
2022/07/17 04:52:06;;;;;;;0.50;0.47;;;;;;;21.96;100.00;95651.59;5132793;27;20426;-57
2022/07/17 04:54:35;;;;;;;3.63;0.97;;;;;;;22.32;100.00;95642.00;5132874;27;20470;-57
2022/07/17 04:57:03;;;;;;;0.60;0.60;;;;;;;22.65;100.00;95645.44;5133049;27;20454;-57
2022/07/17 04:59:32;;;;;;;0.50;0.47;;;;;;;22.77;100.00;95642.72;5132876;27;20509;-56
2022/07/17 05:02:00;;;;;;;0.50;0.40;;;;;;;22.79;100.00;95643.19;5133082;27;20459;-56
2022/07/17 05:04:30;;;;;;;0.80;0.53;;;;;;;22.95;100.00;95643.28;5132834;27;20490;-56
2022/07/17 05:06:59;;;;;;;0.60;0.40;;;;;;;22.70;100.00;95639.81;5132053;27;20431;-56
2022/07/17 05:09:27;;;;;;;2.60;0.60;;;;;;;22.43;100.00;95626.94;5132285;27;20540;-56
2022/07/17 05:11:56;;;;;;;1.07;1.03;;;;;;;22.01;100.00;95648.69;5132659;27;21000;-56
2022/07/17 05:14:24;;;;;;;0.80;0.60;;;;;;;21.65;100.00;95645.03;5132569;27;20422;-57
2022/07/17 05:16:52;;;;;;;0.70;0.57;;;;;;;21.77;100.00;95662.06;5132338;28;20562;-56
2022/07/17 05:19:22;;;;;;;4.17;1.20;;;;;;;21.56;100.00;95671.28;5132556;28;20514;-57
2022/07/17 05:21:52;;;;;;;0.67;0.67;;;;;;;21.98;100.00;95667.47;5132497;28;20451;-57
2022/07/17 05:24:21;;;;;;;0.67;0.67;;;;;;;22.14;100.00;95671.88;5132748;28;20422;-57
2022/07/17 05:26:49;;;;;;;0.60;0.53;;;;;;;22.14;100.00;95674.59;5132484;28;20514;-56
2022/07/17 05:29:18;;;;;;;1.73;0.80;;;;;;;22.24;100.00;95673.38;5132744;28;20541;-56
2022/07/17 05:31:46;;;;;;;0.40;0.30;;;;;;;22.49;100.00;95647.97;5132731;28;20465;-56
2022/07/17 05:34:14;;;;;;;1.93;0.53;;;;;;;23.15;100.00;95678.28;5132466;28;20433;-56
2022/07/17 05:36:43;;;;;;;1.03;0.57;;;;;;;22.86;100.00;95683.16;5132287;28;20495;-56
2022/07/17 05:39:13;;;;;;;0.73;0.73;;;;;;;22.80;100.00;95679.09;5132289;28;20804;-56
2022/07/17 05:41:41;;;;;;;0.60;0.60;;;;;;;23.21;100.00;95662.63;5131998;28;20963;-56
2022/07/17 05:44:10;;;;;;;0.60;0.50;;;;;;;22.87;100.00;95666.59;5132257;28;20505;-56
2022/07/17 05:46:38;;;;;;;0.83;0.83;;;;;;;22.96;100.00;95666.50;5132039;28;20492;-55
2022/07/17 05:49:07;;;;;;;3.30;1.80;;;;;;;23.28;100.00;95657.44;5131939;28;20976;-54
2022/07/17 05:51:35;;;;;;;0.70;0.70;;;;;;;23.42;100.00;95649.78;5132338;28;20506;-54
2022/07/17 05:54:04;;;;;;;0.60;0.50;;;;;;;23.58;100.00;95661.44;5132327;28;20480;-54
2022/07/17 05:56:33;;;;;;;0.70;0.63;;;;;;;24.20;100.00;95649.25;5131868;28;20521;-54
2022/07/17 05:59:02;;;;;;;1.03;0.77;;;;;;;24.42;100.00;95656.78;5132023;28;20463;-54
2022/07/17 06:01:30;;;;;;;0.83;0.63;;;;;;;23.89;100.00;95644.53;5131877;28;20470;-54
2022/07/17 06:03:59;;;;;;;0.67;0.67;;;;;;;24.16;100.00;95659.97;5131912;28;20877;-54
2022/07/17 06:06:28;;;;;;;1.20;1.07;;;;;;;24.07;99.17;95664.75;5132115;28;20460;-55
2022/07/17 06:08:56;;;;;;;0.70;0.70;;;;;;;24.46;97.82;95668.50;5131513;28;20462;-55
2022/07/17 06:11:25;;;;;;;0.50;0.40;;;;;;;24.35;94.22;95660.09;5131306;28;20466;-55
2022/07/17 06:13:59;;;;;;;0.77;0.77;;;;;;;24.98;97.48;95658.19;5131972;28;20567;-54
2022/07/17 06:16:28;;;;;;;1.30;1.20;;;;;;;25.31;90.64;95659.69;5131611;28;20843;-54
2022/07/17 06:18:56;;;;;;;0.50;0.50;;;;;;;25.74;84.96;95656.78;5131316;28;20940;-55
2022/07/17 06:21:25;;;;;;;0.60;0.50;;;;;;;25.44;83.11;95648.38;5131814;27;20484;-52
2022/07/17 06:23:53;;;;;;;0.70;0.70;;;;;;;25.23;83.66;95658.75;5135635;27;20513;-53
2022/07/17 06:26:22;;;;;;;0.83;0.63;;;;;;;25.41;81.96;95653.72;5135527;27;20430;-53
2022/07/17 06:28:51;;;;;;;0.83;0.80;;;;;;;26.19;79.91;95662.34;5135164;27;20553;-53
2022/07/17 06:31:22;;;;;;;0.40;0.30;;;;;;;26.76;76.74;95657.91;5135057;27;21013;-53
2022/07/17 06:33:50;;;;;;;0.47;0.40;;;;;;;26.96;72.35;95651.25;5135336;27;20461;-53
2022/07/17 06:36:19;;;;;;;1.17;0.47;;;;;;;27.31;67.35;95651.78;5135449;27;20507;-53
2022/07/17 06:38:47;;;;;;;0.60;0.60;;;;;;;26.61;75.93;95653.38;5134033;27;20438;-53
2022/07/17 06:41:15;;;;;;;0.60;0.60;;;;;;;26.60;71.24;95651.78;5134796;27;20419;-53
2022/07/17 06:43:44;;;;;;;0.67;0.53;;;;;;;26.73;67.31;95604.22;5134593;27;20509;-53
2022/07/17 06:46:12;;;;;;;5.73;0.90;;;;;;;27.19;68.34;95654.72;5134544;27;20995;-52
2022/07/17 06:48:42;;;;;;;0.73;0.73;;;;;;;27.45;69.69;95651.22;5133237;27;20484;-52
2022/07/17 06:51:10;;;;;;;0.50;0.50;;;;;;;27.35;72.79;95658.03;5133105;27;20466;-53
2022/07/17 06:53:39;;;;;;;0.53;0.43;;;;;;;27.48;72.18;95658.63;5133300;27;20699;-53
2022/07/17 06:56:07;;;;;;;0.53;0.50;;;;;;;27.63;75.21;95657.66;5133584;27;20870;-53
2022/07/17 06:58:35;;;;;;;0.80;0.80;;;;;;;27.35;75.47;95651.84;5134021;27;20999;-54
2022/07/17 07:01:04;;;;;;;0.70;0.70;;;;;;;27.99;72.57;95653.44;5133946;27;20478;-55
2022/07/17 07:03:32;;;;;;;0.50;0.40;;;;;;;28.24;66.41;95651.78;5134384;27;20440;-55
2022/07/17 07:06:02;;;;;;;0.50;0.40;;;;;;;28.81;62.89;95644.97;5134276;27;20986;-55
2022/07/17 07:08:30;;;;;;;0.50;0.50;;;;;;;28.39;66.35;95642.59;5134199;27;20479;-55
2022/07/17 07:10:59;;;;;;;0.40;0.40;;;;;;;28.77;64.47;95647.66;5134156;27;20478;-55
2022/07/17 07:13:27;;;;;;;0.40;0.30;;;;;;;29.50;62.30;95648.56;5134125;27;20415;-55
2022/07/17 07:15:56;;;;;;;1.83;1.73;;;;;;;28.92;61.05;95645.81;5133928;27;20502;-55
2022/07/17 07:18:24;;;;;;;0.70;0.70;;;;;;;28.96;60.11;95641.19;5134268;27;20542;-55
2022/07/17 07:20:52;;;;;;;0.63;0.60;;;;;;;29.04;57.91;95642.81;5133992;27;20450;-55
2022/07/17 07:23:22;;;;;;;0.47;0.47;;;;;;;29.71;59.22;95639.69;5134225;27;20450;-55
2022/07/17 07:25:50;;;;;;;0.63;0.63;;;;;;;29.37;58.72;95639.91;5133932;27;20506;-54
2022/07/17 07:28:19;;;;;;;0.87;0.87;;;;;;;30.06;58.27;95637.13;5134416;27;20450;-54
2022/07/17 07:30:47;;;;;;;1.10;1.10;;;;;;;29.96;57.66;95635.91;5134016;27;20489;-54
2022/07/17 07:33:16;;;;;;;0.83;0.83;;;;;;;30.33;57.94;95630.19;5133827;27;20414;-54
2022/07/17 07:35:45;;;;;;;3.00;0.47;;;;;;;30.10;56.74;95633.25;5133698;27;20501;-54
2022/07/17 07:38:13;;;;;;;0.70;0.70;;;;;;;30.53;56.10;95636.09;5133823;27;20454;-54
2022/07/17 07:40:43;;;;;;;0.50;0.40;;;;;;;30.37;51.88;95630.97;5133583;27;20971;-54
2022/07/17 07:43:11;;;;;;;0.70;0.70;;;;;;;30.85;51.46;95630.63;5133845;27;20466;-54
2022/07/17 07:45:40;;;;;;;0.50;0.40;;;;;;;30.30;54.37;95619.22;5133368;27;20459;-54
2022/07/17 07:48:08;;;;;;;1.17;1.17;;;;;;;29.91;54.49;95622.63;5133568;27;20414;-54
2022/07/17 07:50:37;;;;;;;1.13;1.03;;;;;;;29.74;56.04;95631.53;5133377;27;20499;-54
2022/07/17 07:53:05;;;;;;;0.60;0.50;;;;;;;30.10;57.18;95619.56;5133585;27;20509;-54
2022/07/17 07:55:33;;;;;;;0.50;0.40;;;;;;;31.14;59.18;95622.03;5133332;27;20435;-54
2022/07/17 07:58:04;;;;;;;0.67;0.67;;;;;;;31.28;56.66;95624.75;5133635;27;20422;-54
2022/07/17 08:00:33;;;;;;;1.43;1.43;;;;;;;31.43;55.33;95620.78;5133438;27;20500;-54
2022/07/17 08:03:02;;;;;;;0.57;0.57;;;;;;;30.79;55.55;95636.47;5131922;27;20486;-54
2022/07/17 08:05:30;;;;;;;1.07;1.03;;;;;;;30.90;55.92;95631.03;5133576;27;20491;-54
2022/07/17 08:07:59;;;;;;;0.70;0.70;;;;;;;31.38;51.77;95615.72;5133600;27;20430;-54
2022/07/17 08:10:28;;;;;;;0.50;0.50;;;;;;;31.87;51.46;95606.56;5132536;27;20495;-54
2022/07/17 08:12:57;;;;;;;0.40;0.40;;;;;;;32.34;49.11;95599.66;5132506;27;20502;-54
2022/07/17 08:15:26;;;;;;;0.50;0.50;;;;;;;32.54;51.68;95614.44;5133101;27;20479;-54
2022/07/17 08:17:55;;;;;;;0.67;0.67;;;;;;;32.26;51.04;95572.69;5132817;27;20527;-55
2022/07/17 08:20:24;;;;;;;0.83;0.80;;;;;;;32.16;51.25;95615.44;5133278;27;20963;-55
2022/07/17 08:22:52;;;;;;;0.60;0.47;;;;;;;32.79;51.42;95621.72;5132983;27;20426;-55
2022/07/17 08:25:32;;;;;;;0.60;0.60;;;;;;;33.24;49.34;95613.06;5133344;27;20418;-55
2022/07/17 08:28:03;;;;;;;0.47;0.40;;;;;;;32.03;49.72;95606.88;5133322;27;20499;-56
2022/07/17 08:30:34;;;;;;;3.43;0.43;;;;;;;33.01;47.03;95603.88;5132211;27;20460;-55
2022/07/17 08:33:04;;;;;;;0.60;0.60;;;;;;;33.20;46.33;95614.28;5131049;27;20962;-55
2022/07/17 08:35:33;;;;;;;0.50;0.50;;;;;;;33.71;44.63;95610.63;5130982;27;20441;-55
2022/07/17 08:38:02;;;;;;;0.73;0.67;;;;;;;33.91;43.70;95603.31;5130957;27;20505;-54
2022/07/17 08:40:32;;;;;;;0.57;0.57;;;;;;;34.38;42.07;95602.28;5130769;27;20992;-55
2022/07/17 08:43:02;;;;;;;0.40;0.30;;;;;;;34.35;43.95;95607.84;5130753;27;20925;-55
2022/07/17 08:45:32;;;;;;;0.70;0.70;;;;;;;33.77;43.05;95603.50;5130593;27;21000;-54
2022/07/17 08:48:03;;;;;;;0.73;0.73;;;;;;;33.85;42.78;95575.47;5132826;27;20493;-54
2022/07/17 08:50:35;;;;;;;0.53;0.50;;;;;;;34.70;40.57;95604.59;5132603;27;20507;-54
2022/07/17 08:53:04;;;;;;;0.57;0.57;;;;;;;34.94;38.96;95602.63;5131908;27;20428;-54
2022/07/17 08:55:33;;;;;;;0.40;0.30;;;;;;;35.28;36.99;95588.66;5132544;27;20457;-54
2022/07/17 08:58:02;;;;;;;2.87;0.50;;;;;;;35.58;36.95;95592.03;5132530;27;20644;-54
2022/07/17 09:00:32;;;;;;;0.60;0.50;;;;;;;36.27;35.82;95581.94;5132650;27;20510;-54
2022/07/17 09:03:03;;;;;;;0.50;0.50;;;;;;;35.76;35.34;95586.16;5132861;27;20631;-54
2022/07/17 09:05:33;;;;;;;0.67;0.67;;;;;;;36.42;36.24;95580.41;5132559;27;20658;-55
2022/07/17 09:08:03;;;;;;;0.50;0.50;;;;;;;36.57;36.41;95583.63;5132392;27;20275;-55
2022/07/17 09:10:36;;;;;;;1.00;1.00;;;;;;;36.10;36.46;95583.13;5132642;27;20291;-55
2022/07/17 09:13:17;;;;;;;0.40;0.40;;;;;;;36.22;36.95;95565.88;5132834;27;20259;-55
2022/07/17 09:15:48;;;;;;;1.37;0.60;;;;;;;35.04;36.82;95588.69;5132316;27;20220;-56
2022/07/17 09:18:18;;;;;;;0.97;0.90;;;;;;;34.04;37.50;95590.56;5132848;28;20183;-56
2022/07/17 09:20:49;;;;;;;0.77;0.70;;;;;;;33.82;39.08;95583.78;5132385;28;20799;-55
2022/07/17 09:23:18;;;;;;;0.40;0.37;;;;;;;33.34;39.67;95583.94;5132582;28;20184;-55
2022/07/17 09:25:49;;;;;;;0.53;0.53;;;;;;;33.29;44.88;95587.13;5132411;28;20189;-55
2022/07/17 09:28:20;;;;;;;0.83;0.57;;;;;;;33.08;46.13;95590.88;5132447;28;20232;-55
2022/07/17 09:30:53;;;;;;;0.60;0.60;;;;;;;32.68;47.75;95588.06;5132269;28;20568;-55
2022/07/17 09:33:23;;;;;;;0.73;0.40;;;;;;;32.78;47.86;95596.22;5132353;28;20422;-55
2022/07/17 09:35:53;;;;;;;1.07;0.97;;;;;;;32.43;44.38;95591.78;5132379;28;20934;-55
2022/07/17 09:38:30;;;;;;;0.50;0.43;;;;;;;32.67;43.55;95586.50;5131807;28;20888;-55
2022/07/17 09:41:15;;;;;;;0.40;0.40;;;;;;;33.32;41.33;95552.56;5132277;28;20805;-55
2022/07/17 09:43:46;;;;;;;0.63;0.50;;;;;;;33.87;38.89;95586.09;5132175;28;20436;-55
2022/07/17 09:46:19;;;;;;;1.40;0.70;;;;;;;33.58;38.88;95591.16;5132192;28;20468;-55
2022/07/17 09:48:50;;;;;;;0.40;0.40;;;;;;;33.88;40.62;95581.38;5131863;28;20472;-55
2022/07/17 09:51:24;;;;;;;0.40;0.30;;;;;;;33.31;41.16;95548.25;5132347;28;20952;-55
2022/07/17 09:53:54;;;;;;;1.50;1.40;;;;;;;34.04;43.03;95589.78;5132389;28;20499;-55
2022/07/17 09:56:25;;;;;;;0.50;0.40;;;;;;;34.12;40.74;95530.75;5133716;27;20453;-55
2022/07/17 09:58:56;;;;;;;0.60;0.60;;;;;;;34.42;37.88;95583.75;5135908;27;20492;-55
2022/07/17 10:01:27;;;;;;;0.50;0.50;;;;;;;33.75;38.94;95586.66;5135904;27;20462;-55
2022/07/17 10:03:55;;;;;;;0.97;0.87;;;;;;;33.52;38.67;95590.00;5135694;27;20431;-55
2022/07/17 10:06:26;;;;;;;0.50;0.43;;;;;;;33.34;41.05;95591.41;5136216;27;20439;-55
2022/07/17 10:08:56;;;;;;;1.70;0.67;;;;;;;32.76;39.61;95603.31;5136315;27;20869;-55
2022/07/17 10:11:27;;;;;;;0.50;0.43;;;;;;;32.69;40.64;95584.91;5135648;27;20479;-55
2022/07/17 10:13:58;;;;;;;0.70;0.70;;;;;;;32.22;40.67;95589.16;5135671;27;20464;-55
2022/07/17 10:16:29;;;;;;;0.60;0.60;;;;;;;32.19;41.11;95575.47;5135492;27;20511;-55
2022/07/17 10:19:00;;;;;;;0.70;0.60;;;;;;;32.32;41.54;95585.56;5135728;27;20512;-55
2022/07/17 10:21:32;;;;;;;0.50;0.30;;;;;;;32.24;40.88;95584.03;5135624;27;20488;-55
2022/07/17 10:24:08;;;;;;;0.40;0.30;;;;;;;32.47;39.68;95598.00;5135771;27;20460;-55
2022/07/17 10:26:40;;;;;;;0.40;0.30;;;;;;;32.51;40.64;95595.25;5135467;27;20415;-56
2022/07/17 10:29:25;;;;;;;0.80;0.80;;;;;;;32.27;41.62;95602.44;5135400;27;20486;-56
2022/07/17 10:31:57;;;;;;;0.40;0.40;;;;;;;31.51;44.64;95612.56;5134765;27;20478;-56
2022/07/17 10:34:39;;;;;;;0.47;0.40;;;;;;;30.98;46.90;95599.75;5133194;27;20431;-56
2022/07/17 10:37:21;;;;;;;0.63;0.57;;;;;;;30.96;49.15;95593.91;5135308;27;20515;-57
2022/07/17 10:39:55;;;;;;;0.40;0.40;;;;;;;30.61;53.43;95594.66;5134067;27;20967;-56
2022/07/17 10:42:57;;;;;;;0.63;0.63;;;;;;;31.24;51.04;95588.38;5135642;27;20459;-56
2022/07/17 10:45:42;;;;;;;0.50;0.50;;;;;;;32.63;48.70;95581.06;5134631;27;20951;-56
2022/07/17 10:48:16;;;;;;;0.83;0.83;;;;;;;32.16;46.76;95587.22;5135134;27;20925;-55
2022/07/17 10:50:48;;;;;;;0.60;0.60;;;;;;;31.70;48.00;95582.72;5134738;27;20500;-56
2022/07/17 10:53:21;;;;;;;0.83;0.83;;;;;;;31.70;50.01;95580.00;5135119;27;20432;-55
2022/07/17 10:55:55;;;;;;;0.63;0.50;;;;;;;31.71;51.16;95569.81;5135123;27;20695;-55
2022/07/17 10:58:26;;;;;;;0.50;0.50;;;;;;;31.18;51.95;95583.66;5134957;27;20459;-56
2022/07/17 11:01:10;;;;;;;0.40;0.30;;;;;;;30.49;55.71;95583.31;5135904;27;20459;-58
2022/07/17 11:03:43;;;;;;;0.90;0.90;;;;;;;30.15;60.64;95589.13;5133853;27;20430;-58
2022/07/17 11:06:15;;;;;;;0.60;0.60;;;;;;;30.11;61.57;95577.38;5134230;27;20446;-57
2022/07/17 11:08:52;;;;;;;1.10;0.60;;;;;;;29.43;60.52;95529.16;5134886;27;20491;-56
2022/07/17 11:11:22;;;;;;;2.70;0.97;;;;;;;29.45;64.58;95575.97;5134584;27;20502;-55
2022/07/17 11:14:09;;;;;;;1.17;1.07;;;;;;;28.95;67.66;95569.44;5134901;27;20516;-55
2022/07/17 11:16:39;;;;;;;3.70;0.60;;;;;;;29.15;67.18;95593.72;5133985;27;20566;-56
2022/07/17 11:19:09;;;;;;;0.70;0.70;;;;;;;29.35;64.81;95592.31;5134502;27;20884;-55
2022/07/17 11:21:48;;;;;;;0.60;0.60;;;;;;;29.45;62.74;95600.56;5133652;27;20808;-56
2022/07/17 11:24:16;;;;;;;0.43;0.40;;;;;;;29.47;65.51;95583.78;5134669;27;20509;-56
2022/07/17 11:26:45;;;;;;;1.00;0.80;;;;;;;28.52;66.00;95458.44;5134463;27;20419;-56
2022/07/17 11:29:14;;;;;;;0.83;0.83;;;;;;;29.23;67.89;95596.16;5134375;27;20435;-56
2022/07/17 11:31:44;;;;;;;0.90;0.90;;;;;;;28.78;62.70;95596.59;5134101;27;20466;-56
2022/07/17 11:34:14;;;;;;;2.87;0.83;;;;;;;28.77;62.23;95595.03;5134641;27;20451;-56
2022/07/17 11:36:45;;;;;;;0.40;0.40;;;;;;;28.23;63.21;95541.22;5134623;27;20823;-56
2022/07/17 11:39:18;;;;;;;0.83;0.83;;;;;;;28.59;64.82;95603.03;5133976;27;20466;-56
2022/07/17 11:41:50;;;;;;;1.60;0.97;;;;;;;27.92;64.41;95538.94;5133217;27;20431;-56